Merriman, Nebraska
Current Conditions -  °F | °C
As of 7:52 AM on Saturday 22 Nov 2014 (Local Time) from KIEN Reporting Station
Clear Clear  
Wind Chill: 38°   Ceiling: Unl
Heat Index: 44°   Visibility: 10mi
Dew Point: 23°   Wind: 13mph
Humidity: 43%   Direction: 220°SW
Pressure: 29.59"   Gusts: NA
Location:  42.92°N, 101.7°W
Report Text: KIEN 221452Z AUTO 22011KT 10SM CLR 07/M05 A2959 RMK AO2 SLP037 T00671050 56022
Loading
Personal Weather Stations






























Interactive Weather Map New forecast layout! Learn more

10-Day Weather Forecast

Advertisements
Track Severe Weather on mobile